createdAt,value
2016-07-14T00:00:39.317Z,0
2016-07-14T00:01:40.031Z,0
2016-07-14T00:02:37.913Z,0
2016-07-14T00:03:38.639Z,0
2016-07-14T00:04:39.882Z,0
2016-07-14T00:05:38.630Z,0
2016-07-14T00:06:39.497Z,0
2016-07-14T00:07:40.051Z,0
2016-07-14T00:08:38.640Z,0
2016-07-14T00:09:39.407Z,0
2016-07-14T00:10:39.354Z,0
2016-07-14T00:11:39.361Z,0
2016-07-14T00:12:39.363Z,0
2016-07-14T00:13:40.075Z,0
2016-07-14T00:14:38.675Z,0
2016-07-14T00:15:40.176Z,0
2016-07-14T00:16:38.674Z,0
2016-07-14T00:17:40.095Z,0
2016-07-14T00:18:39.387Z,0
2016-07-14T00:19:37.984Z,0
2016-07-14T00:20:38.686Z,0
2016-07-14T00:21:38.694Z,0
2016-07-14T00:22:38.694Z,0
2016-07-14T00:23:38.705Z,0
2016-07-14T00:24:38.017Z,0
2016-07-14T00:25:38.701Z,0
2016-07-14T00:26:40.528Z,0
2016-07-14T00:27:38.710Z,0
2016-07-14T00:28:39.064Z,0
2016-07-14T00:29:38.722Z,0
2016-07-14T00:30:38.723Z,0
2016-07-14T00:31:38.739Z,0
2016-07-14T00:32:39.453Z,0
2016-07-14T00:33:38.739Z,0
2016-07-14T00:34:39.462Z,0
2016-07-14T00:35:38.761Z,0
2016-07-14T00:36:38.144Z,0
2016-07-14T00:37:38.049Z,0
2016-07-14T00:38:40.172Z,0
2016-07-14T00:39:40.889Z,0
2016-07-14T00:40:39.470Z,0
2016-07-14T00:41:38.067Z,0
2016-07-14T00:42:38.778Z,0
2016-07-14T00:43:38.777Z,0
2016-07-14T00:44:38.795Z,0
2016-07-14T00:45:38.796Z,0
2016-07-14T00:46:38.442Z,0
2016-07-14T00:47:39.497Z,0
2016-07-14T00:48:38.848Z,0
2016-07-14T00:49:38.801Z,0
2016-07-14T00:50:40.011Z,0
2016-07-14T00:51:38.157Z,0
2016-07-14T00:52:40.223Z,0
2016-07-14T00:53:39.526Z,0
2016-07-14T00:54:38.128Z,0
2016-07-14T00:55:38.825Z,0
2016-07-14T00:56:37.417Z,0
2016-07-14T00:57:39.638Z,0
2016-07-14T00:58:39.588Z,0
2016-07-14T00:59:38.782Z,0
2016-07-14T01:00:38.842Z,0
2016-07-14T01:01:40.647Z,0
2016-07-14T01:02:37.436Z,0
2016-07-14T01:03:38.145Z,0
2016-07-14T01:04:38.156Z,0
2016-07-14T01:05:40.268Z,0
2016-07-14T01:06:38.865Z,0
2016-07-14T01:07:38.880Z,0
2016-07-14T01:08:39.960Z,0
2016-07-14T01:09:39.585Z,0
2016-07-14T01:10:39.125Z,0
2016-07-14T01:11:38.883Z,0
2016-07-14T01:12:38.893Z,0
2016-07-14T01:13:39.600Z,0
2016-07-14T01:14:38.897Z,0
2016-07-14T01:15:38.898Z,0
2016-07-14T01:16:39.608Z,0
2016-07-14T01:17:40.319Z,0
2016-07-14T01:18:38.908Z,0
2016-07-14T01:19:41.209Z,0
2016-07-14T01:20:38.912Z,0
2016-07-14T01:21:39.721Z,0
2016-07-14T01:22:38.923Z,0
2016-07-14T01:23:40.033Z,0
2016-07-14T01:24:39.634Z,0
2016-07-14T01:25:38.935Z,0
2016-07-14T01:26:40.352Z,0
2016-07-14T01:27:39.647Z,0
2016-07-14T01:28:39.653Z,0
2016-07-14T01:29:40.361Z,0
2016-07-14T01:30:39.661Z,0
2016-07-14T01:31:39.663Z,0
2016-07-14T01:32:38.264Z,0
2016-07-14T01:33:39.672Z,0
2016-07-14T01:34:39.915Z,0
2016-07-14T01:35:39.681Z,0
2016-07-14T01:36:38.975Z,0
2016-07-14T01:37:39.688Z,0
2016-07-14T01:38:39.740Z,0
2016-07-14T01:39:38.989Z,0
2016-07-14T01:40:38.290Z,0
2016-07-14T01:41:39.559Z,0
2016-07-14T01:42:38.998Z,0
2016-07-14T01:43:40.641Z,0
2016-07-14T01:44:40.422Z,0
2016-07-14T01:45:40.476Z,0
2016-07-14T01:46:38.309Z,0
2016-07-14T01:47:38.317Z,0
2016-07-14T01:48:39.728Z,0
2016-07-14T01:49:39.023Z,0
2016-07-14T01:50:39.033Z,0
2016-07-14T01:51:39.033Z,0
2016-07-14T01:52:39.280Z,0
2016-07-14T01:53:39.044Z,0
2016-07-14T01:54:39.098Z,0
2016-07-14T01:55:38.348Z,0
2016-07-14T01:56:39.103Z,0
2016-07-14T01:57:40.470Z,0
2016-07-14T01:58:39.772Z,0
2016-07-14T01:59:40.528Z,0
2016-07-14T02:00:39.069Z,0
2016-07-14T02:01:40.490Z,0
2016-07-14T02:02:38.371Z,0
2016-07-14T02:03:40.745Z,0
2016-07-14T02:04:39.085Z,0
2016-07-14T02:05:40.603Z,0
2016-07-14T02:06:39.099Z,0
2016-07-14T02:07:38.839Z,0
2016-07-14T02:08:38.399Z,0
2016-07-14T02:09:37.697Z,0
2016-07-14T02:10:39.822Z,0
2016-07-14T02:11:39.120Z,0
2016-07-14T02:12:40.533Z,0
2016-07-14T02:13:39.834Z,0
2016-07-14T02:14:39.129Z,0
2016-07-14T02:15:39.845Z,0
2016-07-14T02:16:40.544Z,0
2016-07-14T02:17:39.141Z,0
2016-07-14T02:18:40.203Z,0
2016-07-14T02:19:40.565Z,0
2016-07-14T02:20:38.451Z,0
2016-07-14T02:21:39.157Z,0
2016-07-14T02:22:39.163Z,0
2016-07-14T02:23:38.469Z,0
2016-07-14T02:24:39.173Z,0
2016-07-14T02:25:40.696Z,0
2016-07-14T02:26:39.182Z,0
2016-07-14T02:27:41.319Z,0
2016-07-14T02:28:39.190Z,0
2016-07-14T02:29:40.854Z,0
2016-07-14T02:30:40.623Z,0
2016-07-14T02:31:39.909Z,0
2016-07-14T02:32:38.507Z,0
2016-07-14T02:33:39.218Z,0
2016-07-14T02:34:38.518Z,0
2016-07-14T02:35:40.638Z,0
2016-07-14T02:36:39.728Z,0
2016-07-14T02:37:39.941Z,0
2016-07-14T02:38:39.945Z,0
2016-07-14T02:39:38.587Z,0
2016-07-14T02:40:40.436Z,0
2016-07-14T02:41:38.547Z,0
2016-07-14T02:42:39.962Z,0
2016-07-14T02:43:39.964Z,0
2016-07-14T02:44:39.977Z,0
2016-07-14T02:45:39.974Z,0
2016-07-14T02:46:39.269Z,0
2016-07-14T02:47:41.103Z,0
2016-07-14T02:48:39.987Z,0
2016-07-14T02:49:40.759Z,0
2016-07-14T02:50:40.704Z,0
2016-07-14T02:51:41.209Z,0
2016-07-14T02:52:40.004Z,0
2016-07-14T02:53:40.004Z,0
2016-07-14T02:54:38.597Z,0
2016-07-14T02:55:38.598Z,0
2016-07-14T02:56:40.723Z,0
2016-07-14T02:57:39.317Z,0
2016-07-14T02:58:39.669Z,0
2016-07-14T02:59:40.077Z,0
2016-07-14T03:00:40.236Z,0
2016-07-14T03:01:39.328Z,0
2016-07-14T03:02:40.035Z,0
2016-07-14T03:03:40.035Z,0
2016-07-14T03:04:40.058Z,0
2016-07-14T03:05:39.338Z,0
2016-07-14T03:06:39.347Z,0
2016-07-14T03:07:40.051Z,0
2016-07-14T03:08:40.062Z,0
2016-07-14T03:09:39.611Z,0
2016-07-14T03:10:38.656Z,0
2016-07-14T03:11:41.495Z,0
2016-07-14T03:12:40.779Z,0
2016-07-14T03:13:37.963Z,0
2016-07-14T03:14:40.085Z,0
2016-07-14T03:15:39.382Z,0
2016-07-14T03:16:39.389Z,0
2016-07-14T03:17:40.809Z,0
2016-07-14T03:18:39.391Z,0
2016-07-14T03:19:39.397Z,0
2016-07-14T03:20:40.204Z,0
2016-07-14T03:21:39.403Z,0
2016-07-14T03:22:39.353Z,0
2016-07-14T03:23:40.121Z,0
2016-07-14T03:24:39.413Z,0
2016-07-14T03:25:40.846Z,0
2016-07-14T03:26:38.716Z,0
2016-07-14T03:27:40.142Z,0
2016-07-14T03:28:40.195Z,0
2016-07-14T03:29:38.739Z,0
2016-07-14T03:30:38.736Z,0
2016-07-14T03:31:40.807Z,0
2016-07-14T03:32:38.752Z,0
2016-07-14T03:33:40.053Z,0
2016-07-14T03:34:38.047Z,0
2016-07-14T03:35:40.179Z,0
2016-07-14T03:36:40.176Z,0
2016-07-14T03:37:40.185Z,0
2016-07-14T03:38:40.195Z,0
2016-07-14T03:39:39.484Z,0
2016-07-14T03:40:40.906Z,0
2016-07-14T03:41:39.493Z,0
2016-07-14T03:42:41.855Z,0
2016-07-14T03:43:39.503Z,0
2016-07-14T03:44:41.342Z,0
2016-07-14T03:45:38.805Z,0
2016-07-14T03:46:39.513Z,5
2016-07-14T03:47:39.522Z,5
2016-07-14T03:48:39.578Z,5
2016-07-14T03:49:38.818Z,5
2016-07-14T03:50:40.951Z,5
2016-07-14T03:51:38.829Z,5
2016-07-14T03:52:38.838Z,5
2016-07-14T03:53:42.281Z,5
2016-07-14T03:54:38.841Z,5
2016-07-14T03:55:39.560Z,5
2016-07-14T03:56:39.563Z,10
2016-07-14T03:57:38.863Z,10
2016-07-14T03:58:40.347Z,10
2016-07-14T03:59:40.286Z,10
2016-07-14T04:00:38.876Z,10
2016-07-14T04:01:40.294Z,10
2016-07-14T04:02:40.349Z,15
2016-07-14T04:03:39.593Z,15
2016-07-14T04:04:39.596Z,15
2016-07-14T04:05:40.315Z,15
2016-07-14T04:06:41.447Z,15
2016-07-14T04:07:38.927Z,15
2016-07-14T04:08:40.331Z,15
2016-07-14T04:09:39.628Z,10
2016-07-14T04:10:39.635Z,10
2016-07-14T04:11:40.344Z,10
2016-07-14T04:12:39.659Z,10
2016-07-14T04:13:40.358Z,10
2016-07-14T04:14:38.941Z,15
2016-07-14T04:15:41.023Z,15
2016-07-14T04:16:39.665Z,15
2016-07-14T04:17:39.312Z,15
2016-07-14T04:18:38.256Z,20
2016-07-14T04:19:39.676Z,20
2016-07-14T04:20:40.389Z,20
2016-07-14T04:21:40.397Z,25
2016-07-14T04:22:40.403Z,30
2016-07-14T04:23:41.109Z,30
2016-07-14T04:24:39.695Z,30
2016-07-14T04:25:39.001Z,35
2016-07-14T04:26:41.516Z,35
2016-07-14T04:27:38.307Z,35
2016-07-14T04:28:41.182Z,30
2016-07-14T04:29:40.482Z,35
2016-07-14T04:30:39.730Z,35
2016-07-14T04:31:39.732Z,35
2016-07-14T04:32:39.759Z,40
2016-07-14T04:33:40.452Z,40
2016-07-14T04:34:40.457Z,40
2016-07-14T04:35:39.759Z,40
2016-07-14T04:36:39.758Z,40
2016-07-14T04:37:39.354Z,35
2016-07-14T04:38:40.478Z,35
2016-07-14T04:39:38.356Z,40
2016-07-14T04:40:39.083Z,40
2016-07-14T04:41:39.804Z,40
2016-07-14T04:42:40.499Z,35
2016-07-14T04:43:40.503Z,35
2016-07-14T04:44:40.507Z,30
2016-07-14T04:45:39.106Z,30
2016-07-14T04:46:40.414Z,30
2016-07-14T04:47:41.243Z,35
2016-07-14T04:48:39.409Z,45
2016-07-14T04:49:40.531Z,40
2016-07-14T04:50:39.069Z,45
2016-07-14T04:51:40.545Z,45
2016-07-14T04:52:41.259Z,45
2016-07-14T04:53:39.143Z,45
2016-07-14T04:54:40.563Z,45
2016-07-14T04:55:38.448Z,50
2016-07-14T04:56:39.860Z,95
2016-07-14T04:57:40.171Z,130
2016-07-14T04:58:39.171Z,105
2016-07-14T04:59:40.528Z,140
2016-07-14T05:00:40.651Z,275
2016-07-14T05:01:39.527Z,350
2016-07-14T05:02:39.895Z,365
2016-07-14T05:03:40.614Z,370
2016-07-14T05:04:39.898Z,395
2016-07-14T05:05:40.615Z,380
2016-07-14T05:06:39.203Z,380
2016-07-14T05:07:39.920Z,395
2016-07-14T05:08:41.051Z,420
2016-07-14T05:09:39.947Z,410
2016-07-14T05:10:41.601Z,420
2016-07-14T05:11:39.232Z,420
2016-07-14T05:12:40.049Z,440
2016-07-14T05:13:38.543Z,465
2016-07-14T05:14:40.664Z,465
2016-07-14T05:15:41.395Z,465
2016-07-14T05:16:40.680Z,450
2016-07-14T05:17:40.684Z,480
2016-07-14T05:18:40.697Z,485
2016-07-14T05:19:39.999Z,460
2016-07-14T05:20:41.414Z,470
2016-07-14T05:21:41.670Z,490
2016-07-14T05:22:40.720Z,505
2016-07-14T05:23:40.728Z,520
2016-07-14T05:24:40.732Z,540
2016-07-14T05:25:40.040Z,520
2016-07-14T05:26:41.468Z,495
2016-07-14T05:27:40.752Z,515
2016-07-14T05:28:40.053Z,595
2016-07-14T05:29:40.064Z,600
2016-07-14T05:30:40.927Z,600
2016-07-14T05:31:40.784Z,620
2016-07-14T05:32:42.112Z,585
2016-07-14T05:33:40.093Z,585
2016-07-14T05:34:41.101Z,605
2016-07-14T05:35:40.810Z,610
2016-07-14T05:36:40.828Z,610
2016-07-14T05:37:40.121Z,605
2016-07-14T05:38:40.136Z,590
2016-07-14T05:39:40.137Z,670
2016-07-14T05:40:40.143Z,670
2016-07-14T05:41:39.384Z,695
2016-07-14T05:42:41.574Z,720
2016-07-14T05:43:42.813Z,710
2016-07-14T05:44:39.469Z,735
2016-07-14T05:45:40.182Z,770
2016-07-14T05:46:41.603Z,800
2016-07-14T05:47:39.495Z,815
2016-07-14T05:48:40.907Z,815
2016-07-14T05:49:40.217Z,760
2016-07-14T05:50:40.930Z,760
2016-07-14T05:51:40.233Z,810
2016-07-14T05:52:41.291Z,850
2016-07-14T05:53:40.959Z,865
2016-07-14T05:54:40.970Z,835
2016-07-14T05:55:40.972Z,840
2016-07-14T05:56:42.212Z,840
2016-07-14T05:57:39.581Z,870
2016-07-14T05:58:40.999Z,900
2016-07-14T05:59:40.305Z,900
2016-07-14T06:00:40.310Z,910
2016-07-14T06:01:40.318Z,850
2016-07-14T06:02:40.329Z,835
2016-07-14T06:03:41.841Z,900
2016-07-14T06:04:41.059Z,905
2016-07-14T06:05:41.663Z,950
2016-07-14T06:06:40.363Z,950
2016-07-14T06:07:39.920Z,905
2016-07-14T06:08:41.852Z,920
2016-07-14T06:09:39.682Z,960
2016-07-14T06:10:41.107Z,940
2016-07-14T06:11:39.699Z,980
2016-07-14T06:12:40.420Z,985
2016-07-14T06:13:41.135Z,1035
2016-07-14T06:14:41.202Z,1050
2016-07-14T06:15:39.032Z,1075
2016-07-14T06:16:43.787Z,1085
2016-07-14T06:17:41.162Z,1075
2016-07-14T06:18:40.632Z,1045
2016-07-14T06:19:40.482Z,1065
2016-07-14T06:20:39.072Z,1115
2016-07-14T06:21:40.493Z,1095
2016-07-14T06:22:41.208Z,830
2016-07-14T06:23:40.514Z,1115
2016-07-14T06:25:40.530Z,1105
2016-07-14T06:26:41.258Z,1115
2016-07-14T06:27:42.115Z,1105
2016-07-14T06:28:41.258Z,1115
2016-07-14T06:29:41.675Z,1090
2016-07-14T06:30:40.622Z,1275
2016-07-14T06:31:39.887Z,1225
2016-07-14T06:32:42.004Z,1175
2016-07-14T06:33:41.301Z,1115
2016-07-14T06:34:42.022Z,1205
2016-07-14T06:35:39.905Z,1210
2016-07-14T06:36:41.427Z,1195
2016-07-14T06:37:39.927Z,1170
2016-07-14T06:38:40.643Z,1090
2016-07-14T06:39:41.365Z,1035
2016-07-14T06:40:42.224Z,1135
2016-07-14T06:41:41.381Z,1130
2016-07-14T06:42:41.389Z,105
2016-07-14T06:43:40.757Z,1300
2016-07-14T06:44:41.401Z,1300
2016-07-14T06:45:41.410Z,1345
2016-07-14T06:46:40.729Z,210
2016-07-14T06:47:41.329Z,115
2016-07-14T06:48:40.744Z,555
2016-07-14T06:49:40.280Z,1300
2016-07-14T06:50:41.453Z,1305
2016-07-14T06:51:41.985Z,785
2016-07-14T06:52:40.054Z,1205
2016-07-14T06:53:41.479Z,1250
2016-07-14T06:54:40.784Z,1215
2016-07-14T06:55:40.794Z,1365
2016-07-14T06:56:40.094Z,1360
2016-07-14T06:57:41.514Z,395
2016-07-14T06:58:42.370Z,295
2016-07-14T06:59:40.121Z,90
2016-07-14T07:00:40.724Z,65
2016-07-14T07:01:41.594Z,80
2016-07-14T07:02:40.377Z,875
2016-07-14T07:03:40.860Z,1485
2016-07-14T07:04:40.864Z,325
2016-07-14T07:05:40.158Z,75
2016-07-14T07:06:41.583Z,1565
2016-07-14T07:07:42.298Z,1265
2016-07-14T07:08:41.653Z,75
2016-07-14T07:09:43.398Z,55
2016-07-14T07:10:40.199Z,575
2016-07-14T07:11:41.871Z,110
2016-07-14T07:12:40.920Z,90
2016-07-14T07:13:40.778Z,910
2016-07-14T07:14:41.647Z,530
2016-07-14T07:15:40.943Z,1600
2016-07-14T07:16:41.661Z,885
2016-07-14T07:17:40.253Z,285
2016-07-14T07:18:41.669Z,90
2016-07-14T07:19:41.683Z,90
2016-07-14T07:20:40.278Z,985
2016-07-14T07:21:42.406Z,145
2016-07-14T07:22:41.599Z,1210
2016-07-14T07:23:41.000Z,370
2016-07-14T07:24:41.312Z,140
2016-07-14T07:25:41.724Z,1700
2016-07-14T07:26:41.728Z,1715
2016-07-14T07:27:41.740Z,1445
2016-07-14T07:28:41.042Z,430
2016-07-14T07:29:41.053Z,450
2016-07-14T07:30:41.776Z,130
2016-07-14T07:31:41.063Z,1535
2016-07-14T07:32:41.080Z,1655
2016-07-14T07:33:43.643Z,385
2016-07-14T07:34:41.835Z,1445
2016-07-14T07:35:42.053Z,1555
2016-07-14T07:36:41.097Z,1610
2016-07-14T07:37:40.400Z,95
2016-07-14T07:38:40.418Z,1045
2016-07-14T07:39:41.134Z,1500
2016-07-14T07:40:40.423Z,1345
2016-07-14T07:41:41.144Z,1595
2016-07-14T07:42:41.152Z,1585
2016-07-14T07:43:41.864Z,905
2016-07-14T07:44:40.809Z,95
2016-07-14T07:45:41.883Z,110
2016-07-14T07:46:42.693Z,80
2016-07-14T07:47:42.606Z,370
2016-07-14T07:48:41.204Z,130
2016-07-14T07:49:41.209Z,120
2016-07-14T07:50:42.628Z,90
2016-07-14T07:51:41.939Z,95
2016-07-14T07:52:41.222Z,90
2016-07-14T07:53:41.524Z,65
2016-07-14T07:54:41.239Z,85
2016-07-14T07:55:41.260Z,100
2016-07-14T07:56:40.554Z,110
2016-07-14T07:57:41.259Z,120
2016-07-14T07:58:41.261Z,120
2016-07-14T07:59:39.865Z,110
2016-07-14T08:00:41.984Z,105
2016-07-14T08:01:41.333Z,110
2016-07-14T08:02:41.290Z,115
2016-07-14T08:03:40.584Z,120
2016-07-14T08:04:43.066Z,125
2016-07-14T08:05:39.892Z,115
2016-07-14T08:06:42.911Z,120
2016-07-14T08:07:40.613Z,115
2016-07-14T08:08:40.618Z,115
2016-07-14T08:09:40.673Z,110
2016-07-14T08:10:41.336Z,105
2016-07-14T08:11:40.638Z,115
2016-07-14T08:12:41.344Z,100
2016-07-14T08:13:40.647Z,85
2016-07-14T08:14:41.360Z,85
2016-07-14T08:15:42.667Z,100
2016-07-14T08:16:42.786Z,90
2016-07-14T08:17:43.347Z,100
2016-07-14T08:18:41.379Z,100
2016-07-14T08:19:42.809Z,90
2016-07-14T08:20:41.395Z,80
2016-07-14T08:21:42.816Z,80
2016-07-14T08:22:41.406Z,100
2016-07-14T08:23:41.409Z,95
2016-07-14T08:24:41.422Z,100
2016-07-14T08:25:41.422Z,85
2016-07-14T08:26:42.783Z,95
2016-07-14T08:27:41.433Z,105
2016-07-14T08:28:42.670Z,120
2016-07-14T08:29:40.739Z,125
2016-07-14T08:30:41.855Z,110
2016-07-14T08:31:42.159Z,95
2016-07-14T08:32:40.754Z,105
2016-07-14T08:33:42.178Z,105
2016-07-14T08:34:41.472Z,100
2016-07-14T08:35:42.184Z,100
2016-07-14T08:36:42.183Z,105
2016-07-14T08:37:40.987Z,105
2016-07-14T08:38:41.497Z,105
2016-07-14T08:39:40.235Z,95
2016-07-14T08:40:40.797Z,105
2016-07-14T08:41:41.560Z,100
2016-07-14T08:42:42.217Z,95
2016-07-14T08:43:42.277Z,90
2016-07-14T08:44:42.986Z,105
2016-07-14T08:45:42.240Z,100
2016-07-14T08:46:42.247Z,90
2016-07-14T08:47:41.545Z,90
2016-07-14T08:48:42.253Z,85
2016-07-14T08:49:41.561Z,80
2016-07-14T08:50:42.358Z,70
2016-07-14T08:51:42.283Z,70
2016-07-14T08:52:42.320Z,80
2016-07-14T08:53:41.575Z,105
2016-07-14T08:54:40.872Z,95
2016-07-14T08:55:42.286Z,120
2016-07-14T08:56:42.295Z,120
2016-07-14T08:57:41.598Z,125
2016-07-14T08:58:42.303Z,110
2016-07-14T08:59:42.314Z,105
2016-07-14T09:00:41.603Z,90
2016-07-14T09:01:42.927Z,90
2016-07-14T09:02:42.387Z,90
2016-07-14T09:03:42.070Z,115
2016-07-14T09:04:42.344Z,115
2016-07-14T09:05:42.604Z,120
2016-07-14T09:06:40.937Z,100
2016-07-14T09:07:42.359Z,90
2016-07-14T09:08:41.650Z,100
2016-07-14T09:09:40.953Z,105
2016-07-14T09:10:42.370Z,80
2016-07-14T09:11:41.719Z,115
2016-07-14T09:12:42.980Z,115
2016-07-14T09:13:42.387Z,125
2016-07-14T09:14:41.687Z,125
2016-07-14T09:15:40.980Z,130
2016-07-14T09:16:43.028Z,125
2016-07-14T09:17:41.705Z,110
2016-07-14T09:18:41.701Z,125
2016-07-14T09:19:40.296Z,125
2016-07-14T09:20:41.014Z,120
2016-07-14T09:21:41.014Z,120
2016-07-14T09:22:41.727Z,110
2016-07-14T09:23:43.187Z,75
2016-07-14T09:24:42.445Z,75
2016-07-14T09:25:41.751Z,70
2016-07-14T09:26:41.747Z,80
2016-07-14T09:27:43.104Z,80
2016-07-14T09:28:41.760Z,70
2016-07-14T09:29:41.262Z,75
2016-07-14T09:30:41.057Z,105
2016-07-14T09:31:41.773Z,110
2016-07-14T09:32:42.488Z,120
2016-07-14T09:33:41.785Z,120
2016-07-14T09:34:41.094Z,120
2016-07-14T09:35:42.500Z,120
2016-07-14T09:36:41.253Z,115
2016-07-14T09:37:41.807Z,120
2016-07-14T09:38:42.566Z,115
2016-07-14T09:39:43.240Z,90
2016-07-14T09:40:42.523Z,80
2016-07-14T09:41:41.827Z,75
2016-07-14T09:42:40.412Z,75
2016-07-14T09:43:42.597Z,80
2016-07-14T09:44:41.853Z,85
2016-07-14T09:45:40.426Z,85
2016-07-14T09:46:42.899Z,110
2016-07-14T09:47:41.145Z,115
2016-07-14T09:48:41.912Z,115
2016-07-14T09:49:42.468Z,115
2016-07-14T09:50:41.165Z,115
2016-07-14T09:51:42.857Z,110
2016-07-14T09:52:42.591Z,115
2016-07-14T09:53:41.899Z,110
2016-07-14T09:54:41.894Z,100
2016-07-14T09:55:41.896Z,115
2016-07-14T09:56:41.903Z,110
2016-07-14T09:57:42.616Z,110
2016-07-14T09:58:42.163Z,105
2016-07-14T09:59:41.918Z,105
2016-07-14T10:00:42.028Z,75
2016-07-14T10:01:41.931Z,105
2016-07-14T10:02:41.276Z,105
2016-07-14T10:03:41.943Z,110
2016-07-14T10:04:41.949Z,95
2016-07-14T10:05:43.376Z,95
2016-07-14T10:06:41.955Z,105
2016-07-14T10:07:41.957Z,110
2016-07-14T10:08:41.961Z,110
2016-07-14T10:09:43.385Z,110
2016-07-14T10:10:42.743Z,80
2016-07-14T10:11:42.639Z,110
2016-07-14T10:12:42.039Z,85
2016-07-14T10:13:43.968Z,70
2016-07-14T10:14:42.707Z,75
2016-07-14T10:15:43.417Z,80
2016-07-14T10:16:41.304Z,85
2016-07-14T10:17:42.013Z,95
2016-07-14T10:18:42.022Z,105
2016-07-14T10:19:41.321Z,95
2016-07-14T10:20:41.325Z,90
2016-07-14T10:21:42.744Z,115
2016-07-14T10:22:43.200Z,115
2016-07-14T10:23:42.051Z,120
2016-07-14T10:24:43.984Z,115
2016-07-14T10:25:41.350Z,110
2016-07-14T10:26:41.360Z,105
2016-07-14T10:27:42.068Z,100
2016-07-14T10:28:41.370Z,100
2016-07-14T10:29:42.793Z,100
2016-07-14T10:30:42.791Z,100
2016-07-14T10:31:42.813Z,105
2016-07-14T10:32:42.102Z,110
2016-07-14T10:33:42.805Z,105
2016-07-14T10:34:42.814Z,110
2016-07-14T10:35:42.140Z,110
2016-07-14T10:36:41.413Z,110
2016-07-14T10:37:41.420Z,110
2016-07-14T10:38:42.138Z,110
2016-07-14T10:39:42.142Z,110
2016-07-14T10:40:42.855Z,105
2016-07-14T10:41:43.579Z,105
2016-07-14T10:42:42.158Z,100
2016-07-14T10:43:43.585Z,80
2016-07-14T10:44:42.807Z,100
2016-07-14T10:45:42.883Z,100
2016-07-14T10:46:42.933Z,75
2016-07-14T10:47:41.480Z,70
2016-07-14T10:48:42.605Z,80
2016-07-14T10:49:42.899Z,90
2016-07-14T10:50:42.202Z,95
2016-07-14T10:51:42.910Z,90
2016-07-14T10:52:42.915Z,95
2016-07-14T10:53:42.925Z,100
2016-07-14T10:54:42.926Z,100
2016-07-14T10:55:42.569Z,100
2016-07-14T10:56:42.229Z,105
2016-07-14T10:57:44.767Z,105
2016-07-14T10:58:42.954Z,105
2016-07-14T10:59:43.202Z,105
2016-07-14T11:00:42.255Z,100
2016-07-14T11:01:41.549Z,95
2016-07-14T11:02:41.557Z,90
2016-07-14T11:03:42.275Z,95
2016-07-14T11:04:43.687Z,95
2016-07-14T11:05:42.285Z,85
2016-07-14T11:06:43.502Z,75
2016-07-14T11:07:42.293Z,70
2016-07-14T11:08:44.226Z,100
2016-07-14T11:09:43.008Z,70
2016-07-14T11:10:43.424Z,80
2016-07-14T11:11:43.031Z,70
2016-07-14T11:12:42.630Z,90
2016-07-14T11:13:41.618Z,90
2016-07-14T11:14:42.327Z,90
2016-07-14T11:15:43.752Z,95
2016-07-14T11:16:42.339Z,95
2016-07-14T11:17:42.356Z,65
2016-07-14T11:18:42.352Z,60
2016-07-14T11:19:44.801Z,55
2016-07-14T11:20:43.070Z,50
2016-07-14T11:21:43.689Z,40
2016-07-14T11:22:42.373Z,35
2016-07-14T11:23:41.672Z,35
2016-07-14T11:24:43.281Z,35
2016-07-14T11:25:43.110Z,35
2016-07-14T11:26:41.684Z,35
2016-07-14T11:27:41.699Z,35
2016-07-14T11:28:43.115Z,35
2016-07-14T11:29:43.128Z,35
2016-07-14T11:30:43.123Z,35
2016-07-14T11:31:41.008Z,35
2016-07-14T11:32:43.188Z,35
2016-07-14T11:33:42.439Z,35
2016-07-14T11:34:42.576Z,35
2016-07-14T11:35:41.021Z,40
2016-07-14T11:36:43.306Z,40
2016-07-14T11:37:43.154Z,40
2016-07-14T11:38:43.866Z,40
2016-07-14T11:39:41.053Z,40
2016-07-14T11:40:41.760Z,40
2016-07-14T11:41:43.171Z,45
2016-07-14T11:42:41.771Z,45
2016-07-14T11:43:44.309Z,45
2016-07-14T11:44:42.481Z,45
2016-07-14T11:45:42.545Z,45
2016-07-14T11:46:43.205Z,45
2016-07-14T11:47:43.256Z,45
2016-07-14T11:48:41.797Z,45
2016-07-14T11:49:42.525Z,50
2016-07-14T11:50:43.924Z,50
2016-07-14T11:51:41.810Z,50
2016-07-14T11:52:42.521Z,50
2016-07-14T11:53:41.819Z,45
2016-07-14T11:54:43.789Z,45
2016-07-14T11:55:43.243Z,45
2016-07-14T11:56:42.284Z,40
2016-07-14T11:57:42.556Z,40
2016-07-14T11:58:43.257Z,40
2016-07-14T11:59:41.844Z,40
2016-07-14T12:00:43.977Z,40
2016-07-14T12:01:42.559Z,40
2016-07-14T12:02:43.270Z,40
2016-07-14T12:03:43.279Z,40
2016-07-14T12:04:41.859Z,35
2016-07-14T12:05:43.440Z,35
2016-07-14T12:06:43.279Z,35
2016-07-14T12:08:42.598Z,40
2016-07-14T12:09:42.607Z,40
2016-07-14T12:10:41.900Z,40
2016-07-14T12:11:43.325Z,40
2016-07-14T12:12:42.603Z,40
2016-07-14T12:13:42.655Z,40
2016-07-14T12:14:41.903Z,40
2016-07-14T12:15:43.321Z,40
2016-07-14T12:16:43.458Z,45
2016-07-14T12:17:43.322Z,45
2016-07-14T12:18:43.932Z,45
2016-07-14T12:19:41.917Z,50
2016-07-14T12:20:41.970Z,50
2016-07-14T12:21:41.932Z,55
2016-07-14T12:22:43.348Z,55
2016-07-14T12:23:42.639Z,55
2016-07-14T12:24:43.356Z,55
2016-07-14T12:25:42.651Z,55
2016-07-14T12:26:44.074Z,55
2016-07-14T12:27:44.570Z,55
2016-07-14T12:28:42.656Z,60
2016-07-14T12:29:42.676Z,60
2016-07-14T12:30:42.677Z,65
2016-07-14T12:31:43.028Z,65
2016-07-14T12:32:43.390Z,70
2016-07-14T12:33:42.020Z,70
2016-07-14T12:34:42.696Z,70
2016-07-14T12:35:43.401Z,70
2016-07-14T12:36:43.407Z,70
2016-07-14T12:37:42.703Z,70
2016-07-14T12:38:43.413Z,70
2016-07-14T12:39:43.535Z,70
2016-07-14T12:40:44.564Z,70
2016-07-14T12:41:42.009Z,70
2016-07-14T12:42:45.116Z,70
2016-07-14T12:43:42.723Z,70
2016-07-14T12:44:42.736Z,65
2016-07-14T12:45:42.743Z,65
2016-07-14T12:46:42.740Z,65
2016-07-14T12:47:42.095Z,65
2016-07-14T12:48:43.514Z,65
2016-07-14T12:49:43.461Z,65
2016-07-14T12:50:42.793Z,60
2016-07-14T12:51:44.565Z,60
2016-07-14T12:52:44.197Z,55
2016-07-14T12:53:45.454Z,55
2016-07-14T12:54:42.067Z,55
2016-07-14T12:55:43.485Z,55
2016-07-14T12:56:43.488Z,55
2016-07-14T12:57:42.081Z,55
2016-07-14T12:58:43.495Z,55
2016-07-14T12:59:42.789Z,60
2016-07-14T13:00:42.797Z,60
2016-07-14T13:01:43.507Z,60
2016-07-14T13:02:42.106Z,60
2016-07-14T13:03:42.824Z,60
2016-07-14T13:04:43.666Z,60
2016-07-14T13:05:42.109Z,60
2016-07-14T13:06:44.287Z,65
2016-07-14T13:07:42.824Z,70
2016-07-14T13:08:42.135Z,80
2016-07-14T13:09:42.837Z,70
2016-07-14T13:10:44.254Z,75
2016-07-14T13:11:43.555Z,75
2016-07-14T13:12:41.433Z,75
2016-07-14T13:13:45.269Z,70
2016-07-14T13:14:43.884Z,70
2016-07-14T13:15:45.201Z,70
2016-07-14T13:16:43.577Z,70
2016-07-14T13:17:41.488Z,75
2016-07-14T13:18:42.876Z,70
2016-07-14T13:19:42.883Z,70
2016-07-14T13:20:43.594Z,70
2016-07-14T13:22:42.191Z,65
2016-07-14T13:23:44.307Z,65
2016-07-14T13:24:43.855Z,65
2016-07-14T13:25:42.906Z,65
2016-07-14T13:26:42.465Z,65
2016-07-14T13:27:43.620Z,60
2016-07-14T13:28:44.478Z,60
2016-07-14T13:29:42.923Z,60
2016-07-14T13:30:42.218Z,55
2016-07-14T13:31:44.665Z,55
2016-07-14T13:32:42.336Z,55
2016-07-14T13:33:43.644Z,55
2016-07-14T13:34:43.694Z,55
2016-07-14T13:35:44.050Z,55
2016-07-14T13:36:42.243Z,55
2016-07-14T13:37:44.661Z,55
2016-07-14T13:38:42.958Z,60
2016-07-14T13:39:43.864Z,60
2016-07-14T13:40:42.968Z,60
2016-07-14T13:41:42.268Z,65
2016-07-14T13:42:42.980Z,70
2016-07-14T13:43:44.395Z,70
2016-07-14T13:44:42.992Z,80
2016-07-14T13:45:42.996Z,75
2016-07-14T13:46:43.718Z,70
2016-07-14T13:47:42.310Z,70
2016-07-14T13:48:44.288Z,65
2016-07-14T13:49:42.456Z,65
2016-07-14T13:50:43.577Z,65
2016-07-14T13:51:44.549Z,65
2016-07-14T13:52:42.317Z,65
2016-07-14T13:53:44.446Z,65
2016-07-14T13:54:43.036Z,60
2016-07-14T13:55:43.047Z,65
2016-07-14T13:56:43.749Z,65
2016-07-14T13:57:43.765Z,65
2016-07-14T13:58:43.048Z,60
2016-07-14T13:59:44.880Z,60
2016-07-14T14:00:41.696Z,60
2016-07-14T14:01:43.967Z,60
2016-07-14T14:02:44.488Z,55
2016-07-14T14:03:42.528Z,55
2016-07-14T14:04:43.070Z,50
2016-07-14T14:05:43.084Z,45
2016-07-14T14:06:42.396Z,40
2016-07-14T14:07:42.389Z,40
2016-07-14T14:08:42.399Z,40
2016-07-14T14:09:43.810Z,45
2016-07-14T14:10:45.047Z,45
2016-07-14T14:11:41.706Z,50
2016-07-14T14:12:44.272Z,50
2016-07-14T14:13:43.121Z,50
2016-07-14T14:14:42.416Z,45